sensor_id;sensor_type;location;lat;lon;timestamp;P1;durP1;ratioP1;P2;durP2;ratioP2
72109;SDS011;59983;52.010;5.420;2023-02-28T00:00:36;9.95;;;9.45;;
72109;SDS011;59983;52.010;5.420;2023-02-28T00:03:03;12.38;;;11.10;;
72109;SDS011;59983;52.010;5.420;2023-02-28T00:05:31;10.93;;;10.13;;
72109;SDS011;59983;52.010;5.420;2023-02-28T00:07:57;12.57;;;11.52;;
72109;SDS011;59983;52.010;5.420;2023-02-28T00:10:26;14.13;;;13.13;;
72109;SDS011;59983;52.010;5.420;2023-02-28T00:12:55;14.52;;;13.50;;
72109;SDS011;59983;52.010;5.420;2023-02-28T00:15:25;14.85;;;13.10;;
72109;SDS011;59983;52.010;5.420;2023-02-28T00:17:51;16.53;;;15.03;;
72109;SDS011;59983;52.010;5.420;2023-02-28T00:20:18;13.90;;;13.02;;
72109;SDS011;59983;52.010;5.420;2023-02-28T00:22:46;13.40;;;12.55;;
72109;SDS011;59983;52.010;5.420;2023-02-28T00:25:15;11.65;;;11.05;;
72109;SDS011;59983;52.010;5.420;2023-02-28T00:27:44;12.98;;;12.18;;
72109;SDS011;59983;52.010;5.420;2023-02-28T00:30:12;11.50;;;10.60;;
72109;SDS011;59983;52.010;5.420;2023-02-28T00:32:41;11.90;;;10.88;;
72109;SDS011;59983;52.010;5.420;2023-02-28T00:35:08;11.32;;;10.73;;
72109;SDS011;59983;52.010;5.420;2023-02-28T00:37:35;11.13;;;10.38;;
72109;SDS011;59983;52.010;5.420;2023-02-28T00:40:02;13.60;;;11.73;;
72109;SDS011;59983;52.010;5.420;2023-02-28T00:42:33;11.30;;;10.57;;
72109;SDS011;59983;52.010;5.420;2023-02-28T00:45:01;14.63;;;11.45;;
72109;SDS011;59983;52.010;5.420;2023-02-28T00:47:30;14.45;;;12.48;;
72109;SDS011;59983;52.010;5.420;2023-02-28T00:49:57;10.80;;;9.80;;
72109;SDS011;59983;52.010;5.420;2023-02-28T00:52:24;15.07;;;11.50;;
72109;SDS011;59983;52.010;5.420;2023-02-28T00:54:50;12.23;;;11.13;;
72109;SDS011;59983;52.010;5.420;2023-02-28T00:57:17;14.27;;;10.07;;
72109;SDS011;59983;52.010;5.420;2023-02-28T00:59:44;16.85;;;11.20;;
72109;SDS011;59983;52.010;5.420;2023-02-28T01:02:10;12.88;;;9.32;;
72109;SDS011;59983;52.010;5.420;2023-02-28T01:04:37;10.63;;;9.75;;
72109;SDS011;59983;52.010;5.420;2023-02-28T01:07:03;11.70;;;10.57;;
72109;SDS011;59983;52.010;5.420;2023-02-28T01:09:30;10.63;;;9.57;;
72109;SDS011;59983;52.010;5.420;2023-02-28T01:11:57;11.63;;;10.57;;
72109;SDS011;59983;52.010;5.420;2023-02-28T01:14:23;13.45;;;10.52;;
72109;SDS011;59983;52.010;5.420;2023-02-28T01:16:50;11.57;;;10.55;;
72109;SDS011;59983;52.010;5.420;2023-02-28T01:19:17;15.20;;;9.73;;
72109;SDS011;59983;52.010;5.420;2023-02-28T01:21:44;11.32;;;10.23;;
72109;SDS011;59983;52.010;5.420;2023-02-28T01:24:10;10.88;;;10.25;;
72109;SDS011;59983;52.010;5.420;2023-02-28T01:26:37;10.52;;;9.48;;
72109;SDS011;59983;52.010;5.420;2023-02-28T01:29:03;14.98;;;11.65;;
72109;SDS011;59983;52.010;5.420;2023-02-28T01:31:30;10.93;;;10.03;;
72109;SDS011;59983;52.010;5.420;2023-02-28T01:33:57;10.13;;;9.40;;
72109;SDS011;59983;52.010;5.420;2023-02-28T01:36:24;10.55;;;9.75;;
72109;SDS011;59983;52.010;5.420;2023-02-28T01:38:51;9.00;;;8.30;;
72109;SDS011;59983;52.010;5.420;2023-02-28T01:41:22;11.10;;;10.20;;
72109;SDS011;59983;52.010;5.420;2023-02-28T01:44:04;9.50;;;8.77;;
72109;SDS011;59983;52.010;5.420;2023-02-28T01:46:53;9.73;;;8.85;;
72109;SDS011;59983;52.010;5.420;2023-02-28T01:49:20;10.43;;;9.77;;
72109;SDS011;59983;52.010;5.420;2023-02-28T01:51:48;10.70;;;9.68;;
72109;SDS011;59983;52.010;5.420;2023-02-28T01:54:19;10.27;;;9.35;;
72109;SDS011;59983;52.010;5.420;2023-02-28T01:56:55;9.80;;;9.17;;
72109;SDS011;59983;52.010;5.420;2023-02-28T02:02:13;10.35;;;9.43;;
72109;SDS011;59983;52.010;5.420;2023-02-28T02:04:43;10.40;;;9.50;;
72109;SDS011;59983;52.010;5.420;2023-02-28T02:07:32;10.48;;;9.70;;
72109;SDS011;59983;52.010;5.420;2023-02-28T02:10:04;10.73;;;10.00;;
72109;SDS011;59983;52.010;5.420;2023-02-28T02:12:55;10.30;;;9.65;;
72109;SDS011;59983;52.010;5.420;2023-02-28T02:15:41;10.85;;;9.93;;
72109;SDS011;59983;52.010;5.420;2023-02-28T02:21:04;9.90;;;9.20;;
72109;SDS011;59983;52.010;5.420;2023-02-28T02:29:39;11.00;;;10.10;;
72109;SDS011;59983;52.010;5.420;2023-02-28T02:38:08;9.30;;;8.57;;
72109;SDS011;59983;52.010;5.420;2023-02-28T02:40:23;9.55;;;8.77;;
72109;SDS011;59983;52.010;5.420;2023-02-28T02:43:01;10.57;;;9.88;;
72109;SDS011;59983;52.010;5.420;2023-02-28T02:45:44;10.73;;;9.85;;
72109;SDS011;59983;52.010;5.420;2023-02-28T02:48:16;10.27;;;9.65;;
72109;SDS011;59983;52.010;5.420;2023-02-28T02:50:51;9.73;;;9.13;;
72109;SDS011;59983;52.010;5.420;2023-02-28T02:53:23;9.60;;;9.00;;
72109;SDS011;59983;52.010;5.420;2023-02-28T02:55:55;11.00;;;10.18;;
72109;SDS011;59983;52.010;5.420;2023-02-28T02:58:26;9.82;;;8.82;;
72109;SDS011;59983;52.010;5.420;2023-02-28T03:00:58;10.52;;;9.80;;
72109;SDS011;59983;52.010;5.420;2023-02-28T03:03:28;10.07;;;8.90;;
72109;SDS011;59983;52.010;5.420;2023-02-28T03:05:57;8.70;;;7.85;;
72109;SDS011;59983;52.010;5.420;2023-02-28T03:08:26;10.95;;;10.05;;
72109;SDS011;59983;52.010;5.420;2023-02-28T03:10:56;8.80;;;8.02;;
72109;SDS011;59983;52.010;5.420;2023-02-28T03:27:21;10.80;;;9.88;;
72109;SDS011;59983;52.010;5.420;2023-02-28T03:29:57;9.53;;;8.93;;
72109;SDS011;59983;52.010;5.420;2023-02-28T03:32:26;10.65;;;9.75;;
72109;SDS011;59983;52.010;5.420;2023-02-28T03:35:13;11.43;;;9.68;;
72109;SDS011;59983;52.010;5.420;2023-02-28T03:37:50;10.20;;;9.25;;
72109;SDS011;59983;52.010;5.420;2023-02-28T03:40:21;10.55;;;9.90;;
72109;SDS011;59983;52.010;5.420;2023-02-28T03:42:53;9.67;;;8.77;;
72109;SDS011;59983;52.010;5.420;2023-02-28T03:45:25;9.48;;;8.82;;
72109;SDS011;59983;52.010;5.420;2023-02-28T03:50:47;9.73;;;9.13;;
72109;SDS011;59983;52.010;5.420;2023-02-28T03:53:22;10.10;;;9.20;;
72109;SDS011;59983;52.010;5.420;2023-02-28T03:55:56;10.00;;;9.30;;
72109;SDS011;59983;52.010;5.420;2023-02-28T04:01:12;9.82;;;9.23;;
72109;SDS011;59983;52.010;5.420;2023-02-28T04:03:58;9.40;;;8.68;;
72109;SDS011;59983;52.010;5.420;2023-02-28T04:06:25;9.88;;;9.27;;
72109;SDS011;59983;52.010;5.420;2023-02-28T04:08:52;8.93;;;8.33;;
72109;SDS011;59983;52.010;5.420;2023-02-28T04:11:24;9.07;;;8.25;;
72109;SDS011;59983;52.010;5.420;2023-02-28T04:14:01;9.20;;;8.65;;
72109;SDS011;59983;52.010;5.420;2023-02-28T04:16:29;9.05;;;8.32;;
72109;SDS011;59983;52.010;5.420;2023-02-28T04:19:02;9.55;;;9.05;;
72109;SDS011;59983;52.010;5.420;2023-02-28T04:21:31;9.53;;;8.87;;
72109;SDS011;59983;52.010;5.420;2023-02-28T04:24:03;9.18;;;8.68;;
72109;SDS011;59983;52.010;5.420;2023-02-28T04:26:34;9.85;;;9.15;;
72109;SDS011;59983;52.010;5.420;2023-02-28T04:29:03;9.20;;;8.68;;
72109;SDS011;59983;52.010;5.420;2023-02-28T04:31:31;9.27;;;8.50;;
72109;SDS011;59983;52.010;5.420;2023-02-28T04:33:58;8.17;;;7.70;;
72109;SDS011;59983;52.010;5.420;2023-02-28T04:36:25;8.52;;;8.05;;
72109;SDS011;59983;52.010;5.420;2023-02-28T04:38:53;8.73;;;8.20;;
72109;SDS011;59983;52.010;5.420;2023-02-28T04:41:20;7.70;;;7.40;;
72109;SDS011;59983;52.010;5.420;2023-02-28T04:43:47;8.88;;;8.48;;
72109;SDS011;59983;52.010;5.420;2023-02-28T04:46:14;9.57;;;8.93;;
72109;SDS011;59983;52.010;5.420;2023-02-28T04:48:41;8.35;;;7.85;;
72109;SDS011;59983;52.010;5.420;2023-02-28T04:51:09;9.98;;;9.48;;
72109;SDS011;59983;52.010;5.420;2023-02-28T04:53:40;8.68;;;8.07;;
72109;SDS011;59983;52.010;5.420;2023-02-28T04:56:09;9.38;;;8.88;;
72109;SDS011;59983;52.010;5.420;2023-02-28T04:58:38;8.70;;;8.20;;
72109;SDS011;59983;52.010;5.420;2023-02-28T05:03:57;9.00;;;8.55;;
72109;SDS011;59983;52.010;5.420;2023-02-28T05:06:25;8.52;;;8.02;;
72109;SDS011;59983;52.010;5.420;2023-02-28T05:08:53;8.75;;;8.32;;
72109;SDS011;59983;52.010;5.420;2023-02-28T05:11:21;9.00;;;8.30;;
72109;SDS011;59983;52.010;5.420;2023-02-28T05:13:51;9.55;;;8.80;;
72109;SDS011;59983;52.010;5.420;2023-02-28T05:16:18;9.20;;;8.50;;
72109;SDS011;59983;52.010;5.420;2023-02-28T05:18:46;8.35;;;7.95;;
72109;SDS011;59983;52.010;5.420;2023-02-28T05:23:51;8.70;;;8.17;;
72109;SDS011;59983;52.010;5.420;2023-02-28T05:26:19;8.40;;;7.80;;
72109;SDS011;59983;52.010;5.420;2023-02-28T05:28:46;9.30;;;8.80;;
72109;SDS011;59983;52.010;5.420;2023-02-28T05:31:12;9.68;;;9.07;;
72109;SDS011;59983;52.010;5.420;2023-02-28T05:33:39;9.50;;;9.10;;
72109;SDS011;59983;52.010;5.420;2023-02-28T05:36:06;8.30;;;7.77;;
72109;SDS011;59983;52.010;5.420;2023-02-28T05:38:33;9.73;;;9.13;;
72109;SDS011;59983;52.010;5.420;2023-02-28T05:41:04;9.77;;;9.13;;
72109;SDS011;59983;52.010;5.420;2023-02-28T05:43:32;9.23;;;8.80;;
72109;SDS011;59983;52.010;5.420;2023-02-28T05:46:01;9.55;;;8.82;;
72109;SDS011;59983;52.010;5.420;2023-02-28T05:48:28;9.60;;;8.87;;
72109;SDS011;59983;52.010;5.420;2023-02-28T05:50:56;9.95;;;9.43;;
72109;SDS011;59983;52.010;5.420;2023-02-28T05:53:23;10.48;;;9.98;;
72109;SDS011;59983;52.010;5.420;2023-02-28T05:55:50;9.85;;;9.05;;
72109;SDS011;59983;52.010;5.420;2023-02-28T05:58:16;10.38;;;9.45;;
72109;SDS011;59983;52.010;5.420;2023-02-28T06:00:43;8.87;;;8.17;;
72109;SDS011;59983;52.010;5.420;2023-02-28T06:03:09;8.45;;;8.02;;
72109;SDS011;59983;52.010;5.420;2023-02-28T06:05:36;9.27;;;8.70;;
72109;SDS011;59983;52.010;5.420;2023-02-28T06:08:02;9.38;;;8.77;;
72109;SDS011;59983;52.010;5.420;2023-02-28T06:10:29;9.23;;;8.63;;
72109;SDS011;59983;52.010;5.420;2023-02-28T06:12:55;9.83;;;9.27;;
72109;SDS011;59983;52.010;5.420;2023-02-28T06:15:26;9.13;;;8.63;;
72109;SDS011;59983;52.010;5.420;2023-02-28T06:17:53;9.77;;;9.27;;
72109;SDS011;59983;52.010;5.420;2023-02-28T06:20:19;8.82;;;8.30;;
72109;SDS011;59983;52.010;5.420;2023-02-28T06:22:46;10.38;;;9.50;;
72109;SDS011;59983;52.010;5.420;2023-02-28T06:25:12;9.00;;;8.27;;
72109;SDS011;59983;52.010;5.420;2023-02-28T06:27:39;9.65;;;9.05;;
72109;SDS011;59983;52.010;5.420;2023-02-28T06:30:05;10.32;;;9.73;;
72109;SDS011;59983;52.010;5.420;2023-02-28T06:32:32;8.45;;;7.95;;
72109;SDS011;59983;52.010;5.420;2023-02-28T06:34:59;9.55;;;9.05;;
72109;SDS011;59983;52.010;5.420;2023-02-28T06:37:25;8.87;;;8.37;;
72109;SDS011;59983;52.010;5.420;2023-02-28T06:39:53;8.60;;;8.20;;
72109;SDS011;59983;52.010;5.420;2023-02-28T06:42:22;10.55;;;9.95;;
72109;SDS011;59983;52.010;5.420;2023-02-28T06:44:55;9.48;;;8.75;;
72109;SDS011;59983;52.010;5.420;2023-02-28T06:47:22;9.60;;;8.90;;
72109;SDS011;59983;52.010;5.420;2023-02-28T06:49:48;9.37;;;8.57;;
72109;SDS011;59983;52.010;5.420;2023-02-28T06:52:15;9.55;;;8.95;;
72109;SDS011;59983;52.010;5.420;2023-02-28T06:54:42;10.05;;;9.55;;
72109;SDS011;59983;52.010;5.420;2023-02-28T06:57:08;9.95;;;9.35;;
72109;SDS011;59983;52.010;5.420;2023-02-28T06:59:35;11.23;;;10.15;;
72109;SDS011;59983;52.010;5.420;2023-02-28T07:02:02;9.57;;;9.07;;
72109;SDS011;59983;52.010;5.420;2023-02-28T07:04:29;9.80;;;9.05;;
72109;SDS011;59983;52.010;5.420;2023-02-28T07:06:55;11.20;;;10.45;;
72109;SDS011;59983;52.010;5.420;2023-02-28T07:09:23;9.93;;;9.40;;
72109;SDS011;59983;52.010;5.420;2023-02-28T07:11:49;11.45;;;10.80;;
72109;SDS011;59983;52.010;5.420;2023-02-28T07:14:16;10.30;;;9.60;;
72109;SDS011;59983;52.010;5.420;2023-02-28T07:16:42;9.38;;;8.88;;
72109;SDS011;59983;52.010;5.420;2023-02-28T07:19:11;10.45;;;9.82;;
72109;SDS011;59983;52.010;5.420;2023-02-28T07:21:38;9.95;;;9.38;;
72109;SDS011;59983;52.010;5.420;2023-02-28T07:24:04;9.20;;;8.80;;
72109;SDS011;59983;52.010;5.420;2023-02-28T07:26:31;9.67;;;8.73;;
72109;SDS011;59983;52.010;5.420;2023-02-28T07:29:00;9.60;;;8.70;;
72109;SDS011;59983;52.010;5.420;2023-02-28T07:31:27;9.25;;;8.73;;
72109;SDS011;59983;52.010;5.420;2023-02-28T07:33:54;9.13;;;8.63;;
72109;SDS011;59983;52.010;5.420;2023-02-28T07:36:22;9.55;;;8.70;;
72109;SDS011;59983;52.010;5.420;2023-02-28T07:38:48;8.97;;;8.47;;
72109;SDS011;59983;52.010;5.420;2023-02-28T07:41:17;9.25;;;8.80;;
72109;SDS011;59983;52.010;5.420;2023-02-28T07:43:45;10.88;;;10.02;;
72109;SDS011;59983;52.010;5.420;2023-02-28T07:46:13;10.00;;;9.38;;
72109;SDS011;59983;52.010;5.420;2023-02-28T07:48:44;8.95;;;8.55;;
72109;SDS011;59983;52.010;5.420;2023-02-28T07:51:11;9.67;;;8.87;;
72109;SDS011;59983;52.010;5.420;2023-02-28T07:53:37;10.27;;;9.65;;
72109;SDS011;59983;52.010;5.420;2023-02-28T07:56:04;9.52;;;9.02;;
72109;SDS011;59983;52.010;5.420;2023-02-28T07:58:31;9.73;;;8.88;;
72109;SDS011;59983;52.010;5.420;2023-02-28T08:01:04;9.65;;;9.25;;
72109;SDS011;59983;52.010;5.420;2023-02-28T08:03:34;8.73;;;8.27;;
72109;SDS011;59983;52.010;5.420;2023-02-28T08:06:05;9.85;;;8.98;;
72109;SDS011;59983;52.010;5.420;2023-02-28T08:08:33;8.73;;;8.23;;
72109;SDS011;59983;52.010;5.420;2023-02-28T08:11:00;9.13;;;8.30;;
72109;SDS011;59983;52.010;5.420;2023-02-28T08:13:28;8.60;;;8.15;;
72109;SDS011;59983;52.010;5.420;2023-02-28T08:15:55;9.37;;;7.53;;
72109;SDS011;59983;52.010;5.420;2023-02-28T08:18:22;8.10;;;7.47;;
72109;SDS011;59983;52.010;5.420;2023-02-28T08:20:49;9.10;;;8.60;;
72109;SDS011;59983;52.010;5.420;2023-02-28T08:23:16;8.52;;;7.82;;
72109;SDS011;59983;52.010;5.420;2023-02-28T08:25:42;8.75;;;8.30;;
72109;SDS011;59983;52.010;5.420;2023-02-28T08:28:09;8.47;;;7.77;;
72109;SDS011;59983;52.010;5.420;2023-02-28T08:30:35;9.68;;;8.85;;
72109;SDS011;59983;52.010;5.420;2023-02-28T08:33:02;8.35;;;7.75;;
72109;SDS011;59983;52.010;5.420;2023-02-28T08:35:28;8.38;;;7.97;;
72109;SDS011;59983;52.010;5.420;2023-02-28T08:37:55;9.48;;;8.98;;
72109;SDS011;59983;52.010;5.420;2023-02-28T08:40:21;8.53;;;8.13;;
72109;SDS011;59983;52.010;5.420;2023-02-28T08:42:48;7.30;;;6.88;;
72109;SDS011;59983;52.010;5.420;2023-02-28T08:45:15;8.30;;;7.80;;
72109;SDS011;59983;52.010;5.420;2023-02-28T08:47:42;7.60;;;7.22;;
72109;SDS011;59983;52.010;5.420;2023-02-28T08:50:08;8.40;;;8.00;;
72109;SDS011;59983;52.010;5.420;2023-02-28T08:52:35;7.00;;;6.67;;
72109;SDS011;59983;52.010;5.420;2023-02-28T08:55:02;7.78;;;7.47;;
72109;SDS011;59983;52.010;5.420;2023-02-28T08:57:28;8.65;;;7.93;;
72109;SDS011;59983;52.010;5.420;2023-02-28T08:59:55;8.68;;;8.07;;
72109;SDS011;59983;52.010;5.420;2023-02-28T09:02:21;8.80;;;8.30;;
72109;SDS011;59983;52.010;5.420;2023-02-28T09:04:48;6.80;;;6.50;;
72109;SDS011;59983;52.010;5.420;2023-02-28T09:07:14;5.57;;;5.38;;
72109;SDS011;59983;52.010;5.420;2023-02-28T09:09:41;7.30;;;7.00;;
72109;SDS011;59983;52.010;5.420;2023-02-28T09:12:26;6.10;;;5.80;;
72109;SDS011;59983;52.010;5.420;2023-02-28T09:14:57;7.05;;;6.55;;
72109;SDS011;59983;52.010;5.420;2023-02-28T09:17:24;6.93;;;6.63;;
72109;SDS011;59983;52.010;5.420;2023-02-28T09:19:56;7.93;;;7.53;;
72109;SDS011;59983;52.010;5.420;2023-02-28T09:22:23;7.15;;;6.78;;
72109;SDS011;59983;52.010;5.420;2023-02-28T09:24:49;7.78;;;7.38;;
72109;SDS011;59983;52.010;5.420;2023-02-28T09:27:16;7.70;;;7.30;;
72109;SDS011;59983;52.010;5.420;2023-02-28T09:29:42;6.47;;;6.17;;
72109;SDS011;59983;52.010;5.420;2023-02-28T09:32:09;6.97;;;6.57;;
72109;SDS011;59983;52.010;5.420;2023-02-28T09:34:36;7.05;;;6.60;;
72109;SDS011;59983;52.010;5.420;2023-02-28T09:37:03;8.05;;;7.35;;
72109;SDS011;59983;52.010;5.420;2023-02-28T09:39:30;7.55;;;6.90;;
72109;SDS011;59983;52.010;5.420;2023-02-28T09:41:57;6.50;;;6.13;;
72109;SDS011;59983;52.010;5.420;2023-02-28T09:44:26;7.82;;;7.43;;
72109;SDS011;59983;52.010;5.420;2023-02-28T09:46:59;7.35;;;6.90;;
72109;SDS011;59983;52.010;5.420;2023-02-28T09:49:33;6.07;;;5.78;;
72109;SDS011;59983;52.010;5.420;2023-02-28T09:52:07;7.05;;;6.63;;
72109;SDS011;59983;52.010;5.420;2023-02-28T09:54:42;6.10;;;5.70;;
72109;SDS011;59983;52.010;5.420;2023-02-28T09:57:28;8.75;;;8.15;;
72109;SDS011;59983;52.010;5.420;2023-02-28T10:00:02;7.45;;;7.07;;
72109;SDS011;59983;52.010;5.420;2023-02-28T10:05:19;6.38;;;6.07;;
72109;SDS011;59983;52.010;5.420;2023-02-28T10:10:29;5.72;;;5.53;;
72109;SDS011;59983;52.010;5.420;2023-02-28T10:13:02;6.90;;;6.60;;
72109;SDS011;59983;52.010;5.420;2023-02-28T10:15:33;5.10;;;4.90;;
72109;SDS011;59983;52.010;5.420;2023-02-28T10:18:03;6.50;;;6.20;;
72109;SDS011;59983;52.010;5.420;2023-02-28T10:20:35;5.60;;;5.40;;
72109;SDS011;59983;52.010;5.420;2023-02-28T10:25:55;6.40;;;6.10;;
72109;SDS011;59983;52.010;5.420;2023-02-28T10:28:25;6.45;;;6.15;;
72109;SDS011;59983;52.010;5.420;2023-02-28T10:30:54;6.65;;;6.35;;
72109;SDS011;59983;52.010;5.420;2023-02-28T10:33:23;8.13;;;7.73;;
72109;SDS011;59983;52.010;5.420;2023-02-28T10:35:51;7.57;;;6.97;;
72109;SDS011;59983;52.010;5.420;2023-02-28T10:38:21;7.20;;;6.90;;
72109;SDS011;59983;52.010;5.420;2023-02-28T10:40:50;6.93;;;6.63;;
72109;SDS011;59983;52.010;5.420;2023-02-28T10:43:21;6.38;;;6.07;;
72109;SDS011;59983;52.010;5.420;2023-02-28T10:45:56;6.23;;;5.90;;
72109;SDS011;59983;52.010;5.420;2023-02-28T10:48:38;7.78;;;7.30;;
72109;SDS011;59983;52.010;5.420;2023-02-28T10:51:16;7.22;;;6.93;;
72109;SDS011;59983;52.010;5.420;2023-02-28T10:56:27;8.00;;;7.50;;
72109;SDS011;59983;52.010;5.420;2023-02-28T10:58:55;5.50;;;5.30;;
72109;SDS011;59983;52.010;5.420;2023-02-28T11:03:58;8.52;;;8.05;;
72109;SDS011;59983;52.010;5.420;2023-02-28T11:06:26;6.70;;;6.40;;
72109;SDS011;59983;52.010;5.420;2023-02-28T11:11:29;5.53;;;5.30;;
72109;SDS011;59983;52.010;5.420;2023-02-28T11:14:14;5.32;;;5.13;;
72109;SDS011;59983;52.010;5.420;2023-02-28T11:16:47;6.20;;;5.90;;
72109;SDS011;59983;52.010;5.420;2023-02-28T11:19:19;6.35;;;6.05;;
72109;SDS011;59983;52.010;5.420;2023-02-28T11:22:00;6.82;;;6.53;;
72109;SDS011;59983;52.010;5.420;2023-02-28T11:24:33;6.53;;;6.13;;
72109;SDS011;59983;52.010;5.420;2023-02-28T11:27:03;6.85;;;6.22;;
72109;SDS011;59983;52.010;5.420;2023-02-28T11:29:31;10.20;;;9.70;;
72109;SDS011;59983;52.010;5.420;2023-02-28T11:34:38;7.05;;;6.70;;
72109;SDS011;59983;52.010;5.420;2023-02-28T11:37:08;7.80;;;7.33;;
72109;SDS011;59983;52.010;5.420;2023-02-28T11:39:38;6.28;;;5.97;;
72109;SDS011;59983;52.010;5.420;2023-02-28T11:44:43;5.55;;;5.03;;
72109;SDS011;59983;52.010;5.420;2023-02-28T11:52:35;6.32;;;5.95;;
72109;SDS011;59983;52.010;5.420;2023-02-28T12:05:43;6.18;;;5.88;;
72109;SDS011;59983;52.010;5.420;2023-02-28T12:13:20;5.60;;;5.35;;
72109;SDS011;59983;52.010;5.420;2023-02-28T12:23:42;6.00;;;5.60;;
72109;SDS011;59983;52.010;5.420;2023-02-28T12:26:32;5.35;;;5.15;;
72109;SDS011;59983;52.010;5.420;2023-02-28T12:31:55;4.75;;;4.55;;
72109;SDS011;59983;52.010;5.420;2023-02-28T12:34:49;4.90;;;4.70;;
72109;SDS011;59983;52.010;5.420;2023-02-28T12:37:21;5.35;;;5.03;;
72109;SDS011;59983;52.010;5.420;2023-02-28T12:40:01;5.35;;;5.15;;
72109;SDS011;59983;52.010;5.420;2023-02-28T12:42:33;5.60;;;5.30;;
72109;SDS011;59983;52.010;5.420;2023-02-28T12:45:05;5.30;;;5.00;;
72109;SDS011;59983;52.010;5.420;2023-02-28T12:47:40;5.95;;;5.65;;
72109;SDS011;59983;52.010;5.420;2023-02-28T12:50:10;5.22;;;4.93;;
72109;SDS011;59983;52.010;5.420;2023-02-28T12:55:29;4.77;;;4.57;;
72109;SDS011;59983;52.010;5.420;2023-02-28T12:58:08;5.00;;;4.70;;
72109;SDS011;59983;52.010;5.420;2023-02-28T13:00:49;5.68;;;5.38;;
72109;SDS011;59983;52.010;5.420;2023-02-28T13:03:27;7.68;;;4.78;;
72109;SDS011;59983;52.010;5.420;2023-02-28T13:09:14;4.60;;;4.40;;
72109;SDS011;59983;52.010;5.420;2023-02-28T13:11:46;5.35;;;5.15;;
72109;SDS011;59983;52.010;5.420;2023-02-28T13:25:01;4.55;;;4.32;;
72109;SDS011;59983;52.010;5.420;2023-02-28T13:27:33;4.80;;;4.60;;
72109;SDS011;59983;52.010;5.420;2023-02-28T13:30:02;4.82;;;4.43;;
72109;SDS011;59983;52.010;5.420;2023-02-28T13:36:38;4.87;;;4.57;;
72109;SDS011;59983;52.010;5.420;2023-02-28T13:38:52;5.75;;;5.38;;
72109;SDS011;59983;52.010;5.420;2023-02-28T13:44:12;4.80;;;4.50;;
72109;SDS011;59983;52.010;5.420;2023-02-28T14:06:25;4.65;;;4.32;;
72109;SDS011;59983;52.010;5.420;2023-02-28T14:08:58;5.90;;;4.57;;
72109;SDS011;59983;52.010;5.420;2023-02-28T14:11:30;4.45;;;4.25;;
72109;SDS011;59983;52.010;5.420;2023-02-28T14:14:00;4.70;;;4.40;;
72109;SDS011;59983;52.010;5.420;2023-02-28T14:16:41;3.93;;;3.73;;
72109;SDS011;59983;52.010;5.420;2023-02-28T14:19:16;3.80;;;3.50;;
72109;SDS011;59983;52.010;5.420;2023-02-28T14:25:15;3.10;;;3.00;;
72109;SDS011;59983;52.010;5.420;2023-02-28T14:27:56;3.17;;;2.95;;
72109;SDS011;59983;52.010;5.420;2023-02-28T14:30:43;4.20;;;3.90;;
72109;SDS011;59983;52.010;5.420;2023-02-28T14:38:27;9.70;;;8.00;;
72109;SDS011;59983;52.010;5.420;2023-02-28T14:40:57;3.17;;;2.97;;
72109;SDS011;59983;52.010;5.420;2023-02-28T14:43:27;17.43;;;12.40;;
72109;SDS011;59983;52.010;5.420;2023-02-28T14:45:59;12.88;;;9.20;;
72109;SDS011;59983;52.010;5.420;2023-02-28T14:48:30;4.53;;;3.97;;
72109;SDS011;59983;52.010;5.420;2023-02-28T14:50:58;17.40;;;11.18;;
72109;SDS011;59983;52.010;5.420;2023-02-28T14:53:30;34.90;;;22.52;;
72109;SDS011;59983;52.010;5.420;2023-02-28T14:56:02;25.80;;;16.00;;
72109;SDS011;59983;52.010;5.420;2023-02-28T14:58:30;8.75;;;6.68;;
72109;SDS011;59983;52.010;5.420;2023-02-28T15:01:00;4.72;;;4.43;;
72109;SDS011;59983;52.010;5.420;2023-02-28T15:03:38;8.18;;;7.63;;
72109;SDS011;59983;52.010;5.420;2023-02-28T15:06:06;2.53;;;2.33;;
72109;SDS011;59983;52.010;5.420;2023-02-28T15:08:40;2.93;;;2.30;;
72109;SDS011;59983;52.010;5.420;2023-02-28T15:11:14;2.97;;;2.78;;
72109;SDS011;59983;52.010;5.420;2023-02-28T15:13:48;2.83;;;2.60;;
72109;SDS011;59983;52.010;5.420;2023-02-28T15:16:18;2.20;;;2.10;;
72109;SDS011;59983;52.010;5.420;2023-02-28T15:18:52;2.80;;;2.60;;
72109;SDS011;59983;52.010;5.420;2023-02-28T15:24:18;2.67;;;2.40;;
72109;SDS011;59983;52.010;5.420;2023-02-28T15:26:59;9.77;;;3.70;;
72109;SDS011;59983;52.010;5.420;2023-02-28T15:29:32;3.10;;;2.90;;
72109;SDS011;59983;52.010;5.420;2023-02-28T15:32:16;3.88;;;3.67;;
72109;SDS011;59983;52.010;5.420;2023-02-28T15:34:50;3.63;;;3.20;;
72109;SDS011;59983;52.010;5.420;2023-02-28T15:37:26;3.65;;;3.35;;
72109;SDS011;59983;52.010;5.420;2023-02-28T15:40:05;3.45;;;3.22;;
72109;SDS011;59983;52.010;5.420;2023-02-28T15:42:39;2.95;;;2.75;;
72109;SDS011;59983;52.010;5.420;2023-02-28T15:45:06;4.32;;;3.00;;
72109;SDS011;59983;52.010;5.420;2023-02-28T15:47:53;3.70;;;3.43;;
72109;SDS011;59983;52.010;5.420;2023-02-28T15:50:27;2.28;;;2.17;;
72109;SDS011;59983;52.010;5.420;2023-02-28T15:52:56;2.22;;;2.13;;
72109;SDS011;59983;52.010;5.420;2023-02-28T15:55:24;2.72;;;2.53;;
72109;SDS011;59983;52.010;5.420;2023-02-28T15:57:55;5.85;;;5.28;;
72109;SDS011;59983;52.010;5.420;2023-02-28T16:00:28;3.60;;;3.37;;
72109;SDS011;59983;52.010;5.420;2023-02-28T16:02:55;2.85;;;2.67;;
72109;SDS011;59983;52.010;5.420;2023-02-28T16:05:26;3.45;;;3.17;;
72109;SDS011;59983;52.010;5.420;2023-02-28T16:08:13;3.42;;;3.22;;
72109;SDS011;59983;52.010;5.420;2023-02-28T16:10:41;4.53;;;3.72;;
72109;SDS011;59983;52.010;5.420;2023-02-28T16:13:08;3.93;;;3.60;;
72109;SDS011;59983;52.010;5.420;2023-02-28T16:15:38;3.78;;;3.50;;
72109;SDS011;59983;52.010;5.420;2023-02-28T16:18:10;3.63;;;3.42;;
72109;SDS011;59983;52.010;5.420;2023-02-28T16:20:38;4.50;;;2.80;;
72109;SDS011;59983;52.010;5.420;2023-02-28T16:23:05;3.03;;;2.83;;
72109;SDS011;59983;52.010;5.420;2023-02-28T16:25:38;2.80;;;2.60;;
72109;SDS011;59983;52.010;5.420;2023-02-28T16:28:12;2.88;;;2.75;;
72109;SDS011;59983;52.010;5.420;2023-02-28T16:30:45;2.80;;;2.60;;
72109;SDS011;59983;52.010;5.420;2023-02-28T16:33:12;3.08;;;2.88;;
72109;SDS011;59983;52.010;5.420;2023-02-28T16:35:39;13.90;;;9.00;;
72109;SDS011;59983;52.010;5.420;2023-02-28T16:38:05;17.40;;;11.70;;
72109;SDS011;59983;52.010;5.420;2023-02-28T16:40:33;7.85;;;7.15;;
72109;SDS011;59983;52.010;5.420;2023-02-28T16:43:04;5.38;;;4.95;;
72109;SDS011;59983;52.010;5.420;2023-02-28T16:45:36;8.00;;;7.18;;
72109;SDS011;59983;52.010;5.420;2023-02-28T16:48:02;4.63;;;4.32;;
72109;SDS011;59983;52.010;5.420;2023-02-28T16:50:29;3.87;;;3.43;;
72109;SDS011;59983;52.010;5.420;2023-02-28T16:52:58;3.78;;;3.58;;
72109;SDS011;59983;52.010;5.420;2023-02-28T16:55:25;4.28;;;3.88;;
72109;SDS011;59983;52.010;5.420;2023-02-28T16:57:56;4.80;;;4.50;;
72109;SDS011;59983;52.010;5.420;2023-02-28T17:00:25;4.05;;;3.83;;
72109;SDS011;59983;52.010;5.420;2023-02-28T17:02:54;3.97;;;3.73;;
72109;SDS011;59983;52.010;5.420;2023-02-28T17:05:22;4.43;;;3.95;;
72109;SDS011;59983;52.010;5.420;2023-02-28T17:07:49;4.78;;;4.47;;
72109;SDS011;59983;52.010;5.420;2023-02-28T17:10:20;5.68;;;5.30;;
72109;SDS011;59983;52.010;5.420;2023-02-28T17:12:49;24.08;;;14.82;;
72109;SDS011;59983;52.010;5.420;2023-02-28T17:15:17;11.20;;;8.97;;
72109;SDS011;59983;52.010;5.420;2023-02-28T17:17:45;8.32;;;7.68;;
72109;SDS011;59983;52.010;5.420;2023-02-28T17:20:21;12.48;;;11.27;;
72109;SDS011;59983;52.010;5.420;2023-02-28T17:22:49;36.92;;;23.35;;
72109;SDS011;59983;52.010;5.420;2023-02-28T17:25:16;20.40;;;15.93;;
72109;SDS011;59983;52.010;5.420;2023-02-28T17:27:43;11.07;;;10.07;;
72109;SDS011;59983;52.010;5.420;2023-02-28T17:30:16;7.90;;;7.40;;